sensor_id;sensor_type;location;lat;lon;timestamp;P1;durP1;ratioP1;P2;durP2;ratioP2
20984;SDS011;10651;47.552;7.606;2023-05-18T06:13:30;13.15;;;7.60;;
20984;SDS011;10651;47.552;7.606;2023-05-18T06:15:56;10.10;;;7.30;;
20984;SDS011;10651;47.552;7.606;2023-05-18T06:18:22;14.40;;;7.85;;
20984;SDS011;10651;47.552;7.606;2023-05-18T06:20:49;14.85;;;8.43;;
20984;SDS011;10651;47.552;7.606;2023-05-18T06:23:15;14.98;;;7.85;;
20984;SDS011;10651;47.552;7.606;2023-05-18T06:25:46;17.83;;;8.13;;
20984;SDS011;10651;47.552;7.606;2023-05-18T06:28:12;14.00;;;7.75;;
20984;SDS011;10651;47.552;7.606;2023-05-18T06:30:38;12.40;;;7.78;;
20984;SDS011;10651;47.552;7.606;2023-05-18T06:33:05;11.98;;;7.40;;
20984;SDS011;10651;47.552;7.606;2023-05-18T06:35:32;13.55;;;7.85;;
20984;SDS011;10651;47.552;7.606;2023-05-18T06:37:58;12.32;;;8.15;;
20984;SDS011;10651;47.552;7.606;2023-05-18T06:40:23;12.68;;;7.78;;
20984;SDS011;10651;47.552;7.606;2023-05-18T06:42:49;11.82;;;7.88;;
20984;SDS011;10651;47.552;7.606;2023-05-18T06:45:15;13.68;;;7.75;;
20984;SDS011;10651;47.552;7.606;2023-05-18T06:47:41;16.25;;;8.20;;
20984;SDS011;10651;47.552;7.606;2023-05-18T06:50:08;12.75;;;7.63;;
20984;SDS011;10651;47.552;7.606;2023-05-18T06:52:34;15.80;;;8.77;;
20984;SDS011;10651;47.552;7.606;2023-05-18T06:54:59;17.65;;;8.50;;
20984;SDS011;10651;47.552;7.606;2023-05-18T06:57:28;11.32;;;8.10;;
20984;SDS011;10651;47.552;7.606;2023-05-18T06:59:55;14.82;;;8.60;;
20984;SDS011;10651;47.552;7.606;2023-05-18T07:02:21;14.00;;;8.35;;
20984;SDS011;10651;47.552;7.606;2023-05-18T07:04:47;18.23;;;8.20;;
20984;SDS011;10651;47.552;7.606;2023-05-18T07:07:13;16.90;;;8.13;;
20984;SDS011;10651;47.552;7.606;2023-05-18T07:09:40;18.23;;;8.32;;
20984;SDS011;10651;47.552;7.606;2023-05-18T07:12:08;14.00;;;7.93;;
20984;SDS011;10651;47.552;7.606;2023-05-18T07:14:34;11.70;;;7.97;;
20984;SDS011;10651;47.552;7.606;2023-05-18T07:17:03;11.27;;;7.30;;
20984;SDS011;10651;47.552;7.606;2023-05-18T07:19:34;17.55;;;7.93;;
20984;SDS011;10651;47.552;7.606;2023-05-18T07:21:59;14.65;;;8.55;;
20984;SDS011;10651;47.552;7.606;2023-05-18T07:24:25;13.48;;;8.77;;
20984;SDS011;10651;47.552;7.606;2023-05-18T07:26:51;11.73;;;7.72;;
20984;SDS011;10651;47.552;7.606;2023-05-18T07:29:17;13.20;;;8.30;;
20984;SDS011;10651;47.552;7.606;2023-05-18T07:31:43;17.13;;;8.60;;
20984;SDS011;10651;47.552;7.606;2023-05-18T07:34:14;16.45;;;9.32;;
20984;SDS011;10651;47.552;7.606;2023-05-18T07:36:46;15.50;;;8.15;;
20984;SDS011;10651;47.552;7.606;2023-05-18T07:49:54;12.98;;;6.65;;
20984;SDS011;10651;47.552;7.606;2023-05-18T07:53:10;9.88;;;6.85;;
20984;SDS011;10651;47.552;7.606;2023-05-18T08:30:01;11.23;;;6.80;;
20984;SDS011;10651;47.552;7.606;2023-05-18T08:40:19;12.93;;;6.75;;
20984;SDS011;10651;47.552;7.606;2023-05-18T08:50:59;11.27;;;6.82;;
20984;SDS011;10651;47.552;7.606;2023-05-18T09:03:43;16.15;;;6.97;;
20984;SDS011;10651;47.552;7.606;2023-05-18T09:10:27;10.20;;;6.10;;
20984;SDS011;10651;47.552;7.606;2023-05-18T09:16:32;13.27;;;6.38;;
20984;SDS011;10651;47.552;7.606;2023-05-18T09:27:19;10.93;;;6.57;;
20984;SDS011;10651;47.552;7.606;2023-05-18T09:40:48;15.48;;;6.32;;
20984;SDS011;10651;47.552;7.606;2023-05-18T09:47:18;12.75;;;6.03;;
20984;SDS011;10651;47.552;7.606;2023-05-18T09:53:55;12.15;;;5.80;;
20984;SDS011;10651;47.552;7.606;2023-05-18T10:07:28;9.45;;;5.93;;
20984;SDS011;10651;47.552;7.606;2023-05-18T10:32:03;11.73;;;5.05;;
20984;SDS011;10651;47.552;7.606;2023-05-18T10:42:07;12.70;;;5.25;;
20984;SDS011;10651;47.552;7.606;2023-05-18T11:04:37;13.57;;;4.85;;
20984;SDS011;10651;47.552;7.606;2023-05-18T11:34:35;12.40;;;4.95;;
20984;SDS011;10651;47.552;7.606;2023-05-18T11:47:29;11.10;;;5.18;;
20984;SDS011;10651;47.552;7.606;2023-05-18T11:53:59;11.65;;;4.35;;
20984;SDS011;10651;47.552;7.606;2023-05-18T11:56:51;9.13;;;4.68;;
20984;SDS011;10651;47.552;7.606;2023-05-18T12:00:20;11.30;;;4.65;;
20984;SDS011;10651;47.552;7.606;2023-05-18T12:08:37;7.15;;;4.80;;
20984;SDS011;10651;47.552;7.606;2023-05-18T12:15:01;7.25;;;4.60;;
20984;SDS011;10651;47.552;7.606;2023-05-18T12:18:17;9.80;;;4.38;;
20984;SDS011;10651;47.552;7.606;2023-05-18T12:21:18;11.90;;;4.55;;
20984;SDS011;10651;47.552;7.606;2023-05-18T12:24:14;10.35;;;4.07;;
20984;SDS011;10651;47.552;7.606;2023-05-18T12:27:14;7.97;;;4.28;;
20984;SDS011;10651;47.552;7.606;2023-05-18T12:29:57;7.38;;;4.40;;
20984;SDS011;10651;47.552;7.606;2023-05-18T12:32:52;13.60;;;4.65;;
20984;SDS011;10651;47.552;7.606;2023-05-18T12:52:25;7.47;;;4.25;;
20984;SDS011;10651;47.552;7.606;2023-05-18T13:04:31;9.80;;;4.72;;
20984;SDS011;10651;47.552;7.606;2023-05-18T13:14:06;5.32;;;3.67;;
20984;SDS011;10651;47.552;7.606;2023-05-18T13:27:01;12.70;;;4.28;;
20984;SDS011;10651;47.552;7.606;2023-05-18T13:47:46;7.13;;;3.58;;
20984;SDS011;10651;47.552;7.606;2023-05-18T13:51:02;5.85;;;3.95;;
20984;SDS011;10651;47.552;7.606;2023-05-18T13:54:35;6.75;;;3.58;;
20984;SDS011;10651;47.552;7.606;2023-05-18T13:58:02;27.25;;;4.20;;
20984;SDS011;10651;47.552;7.606;2023-05-18T14:01:08;7.00;;;3.58;;
20984;SDS011;10651;47.552;7.606;2023-05-18T14:04:18;7.05;;;3.75;;
20984;SDS011;10651;47.552;7.606;2023-05-18T14:07:08;6.65;;;3.53;;
20984;SDS011;10651;47.552;7.606;2023-05-18T14:10:12;6.15;;;3.90;;
20984;SDS011;10651;47.552;7.606;2023-05-18T14:15:36;7.18;;;3.85;;
20984;SDS011;10651;47.552;7.606;2023-05-18T14:18:15;10.35;;;3.63;;
20984;SDS011;10651;47.552;7.606;2023-05-18T14:21:24;11.93;;;4.35;;
20984;SDS011;10651;47.552;7.606;2023-05-18T14:24:03;5.38;;;3.60;;
20984;SDS011;10651;47.552;7.606;2023-05-18T14:27:07;9.35;;;3.70;;
20984;SDS011;10651;47.552;7.606;2023-05-18T14:32:38;7.70;;;3.40;;
20984;SDS011;10651;47.552;7.606;2023-05-18T14:35:17;10.98;;;3.85;;
20984;SDS011;10651;47.552;7.606;2023-05-18T14:37:56;7.47;;;3.70;;
20984;SDS011;10651;47.552;7.606;2023-05-18T14:40:37;6.05;;;3.30;;
20984;SDS011;10651;47.552;7.606;2023-05-18T14:43:32;11.68;;;3.83;;
20984;SDS011;10651;47.552;7.606;2023-05-18T14:46:18;13.63;;;4.22;;
20984;SDS011;10651;47.552;7.606;2023-05-18T14:48:49;7.75;;;3.58;;
20984;SDS011;10651;47.552;7.606;2023-05-18T14:51:45;8.93;;;3.90;;
20984;SDS011;10651;47.552;7.606;2023-05-18T14:54:23;16.25;;;3.92;;
20984;SDS011;10651;47.552;7.606;2023-05-18T15:03:43;6.63;;;3.67;;
20984;SDS011;10651;47.552;7.606;2023-05-18T15:06:30;6.72;;;3.90;;
20984;SDS011;10651;47.552;7.606;2023-05-18T15:09:07;7.70;;;3.72;;
20984;SDS011;10651;47.552;7.606;2023-05-18T15:14:30;8.27;;;3.22;;
20984;SDS011;10651;47.552;7.606;2023-05-18T15:17:48;8.80;;;3.50;;
20984;SDS011;10651;47.552;7.606;2023-05-18T15:20:37;8.88;;;4.78;;
20984;SDS011;10651;47.552;7.606;2023-05-18T15:25:50;10.10;;;5.63;;
20984;SDS011;10651;47.552;7.606;2023-05-18T15:28:16;9.30;;;3.78;;
20984;SDS011;10651;47.552;7.606;2023-05-18T15:30:42;7.22;;;3.30;;
20984;SDS011;10651;47.552;7.606;2023-05-18T15:33:07;7.18;;;3.55;;
20984;SDS011;10651;47.552;7.606;2023-05-18T15:35:33;9.20;;;3.55;;
20984;SDS011;10651;47.552;7.606;2023-05-18T15:38:00;14.13;;;3.67;;
20984;SDS011;10651;47.552;7.606;2023-05-18T15:40:26;5.97;;;3.30;;
20984;SDS011;10651;47.552;7.606;2023-05-18T15:42:52;8.73;;;4.03;;
20984;SDS011;10651;47.552;7.606;2023-05-18T15:45:18;6.28;;;3.40;;
20984;SDS011;10651;47.552;7.606;2023-05-18T15:47:43;6.10;;;3.90;;
20984;SDS011;10651;47.552;7.606;2023-05-18T15:50:09;8.32;;;3.67;;
20984;SDS011;10651;47.552;7.606;2023-05-18T15:52:49;7.45;;;3.42;;
20984;SDS011;10651;47.552;7.606;2023-05-18T15:55:20;8.73;;;3.53;;
20984;SDS011;10651;47.552;7.606;2023-05-18T15:57:45;6.57;;;3.78;;
20984;SDS011;10651;47.552;7.606;2023-05-18T16:00:11;8.00;;;3.15;;
20984;SDS011;10651;47.552;7.606;2023-05-18T16:02:46;8.90;;;3.95;;
20984;SDS011;10651;47.552;7.606;2023-05-18T16:05:12;6.03;;;3.50;;
20984;SDS011;10651;47.552;7.606;2023-05-18T16:07:38;8.90;;;3.80;;
20984;SDS011;10651;47.552;7.606;2023-05-18T16:10:06;6.00;;;3.20;;
20984;SDS011;10651;47.552;7.606;2023-05-18T16:12:32;8.65;;;3.75;;
20984;SDS011;10651;47.552;7.606;2023-05-18T16:14:58;5.45;;;3.67;;
20984;SDS011;10651;47.552;7.606;2023-05-18T16:17:34;5.32;;;3.20;;
20984;SDS011;10651;47.552;7.606;2023-05-18T16:20:00;6.15;;;3.78;;
20984;SDS011;10651;47.552;7.606;2023-05-18T16:22:25;11.77;;;3.55;;
20984;SDS011;10651;47.552;7.606;2023-05-18T16:24:51;7.85;;;3.50;;
20984;SDS011;10651;47.552;7.606;2023-05-18T16:27:18;9.52;;;3.78;;
20984;SDS011;10651;47.552;7.606;2023-05-18T16:29:44;7.80;;;3.40;;
20984;SDS011;10651;47.552;7.606;2023-05-18T16:32:10;6.78;;;3.53;;
20984;SDS011;10651;47.552;7.606;2023-05-18T16:34:35;6.07;;;3.88;;
20984;SDS011;10651;47.552;7.606;2023-05-18T16:37:01;6.13;;;3.38;;
20984;SDS011;10651;47.552;7.606;2023-05-18T16:39:27;4.80;;;2.95;;
20984;SDS011;10651;47.552;7.606;2023-05-18T16:41:52;7.55;;;3.70;;
20984;SDS011;10651;47.552;7.606;2023-05-18T16:44:18;7.78;;;3.80;;
20984;SDS011;10651;47.552;7.606;2023-05-18T16:46:43;7.68;;;3.72;;
20984;SDS011;10651;47.552;7.606;2023-05-18T16:49:09;6.70;;;3.67;;
20984;SDS011;10651;47.552;7.606;2023-05-18T16:51:35;6.60;;;3.28;;
20984;SDS011;10651;47.552;7.606;2023-05-18T16:54:01;12.48;;;3.55;;
20984;SDS011;10651;47.552;7.606;2023-05-18T16:56:26;6.82;;;3.75;;
20984;SDS011;10651;47.552;7.606;2023-05-18T16:58:53;6.00;;;3.42;;
20984;SDS011;10651;47.552;7.606;2023-05-18T17:01:19;8.57;;;3.30;;
20984;SDS011;10651;47.552;7.606;2023-05-18T17:04:30;11.50;;;3.88;;
20984;SDS011;10651;47.552;7.606;2023-05-18T17:09:36;9.35;;;4.47;;
20984;SDS011;10651;47.552;7.606;2023-05-18T17:12:06;8.18;;;3.60;;
20984;SDS011;10651;47.552;7.606;2023-05-18T17:14:32;15.20;;;4.20;;
20984;SDS011;10651;47.552;7.606;2023-05-18T17:16:58;7.32;;;3.90;;
20984;SDS011;10651;47.552;7.606;2023-05-18T17:19:24;11.18;;;4.10;;
20984;SDS011;10651;47.552;7.606;2023-05-18T17:21:50;12.75;;;3.90;;
20984;SDS011;10651;47.552;7.606;2023-05-18T17:24:16;5.57;;;3.42;;
20984;SDS011;10651;47.552;7.606;2023-05-18T17:26:41;10.35;;;4.00;;
20984;SDS011;10651;47.552;7.606;2023-05-18T17:29:07;8.27;;;3.95;;
20984;SDS011;10651;47.552;7.606;2023-05-18T17:31:33;7.70;;;3.90;;
20984;SDS011;10651;47.552;7.606;2023-05-18T17:33:58;6.25;;;3.83;;
20984;SDS011;10651;47.552;7.606;2023-05-18T17:36:24;10.38;;;3.55;;
20984;SDS011;10651;47.552;7.606;2023-05-18T17:38:50;9.55;;;3.80;;
20984;SDS011;10651;47.552;7.606;2023-05-18T17:41:16;13.93;;;4.45;;
20984;SDS011;10651;47.552;7.606;2023-05-18T17:43:45;13.40;;;4.90;;
20984;SDS011;10651;47.552;7.606;2023-05-18T17:46:11;10.43;;;4.32;;
20984;SDS011;10651;47.552;7.606;2023-05-18T17:48:36;5.82;;;3.83;;
20984;SDS011;10651;47.552;7.606;2023-05-18T17:51:02;7.47;;;3.63;;
20984;SDS011;10651;47.552;7.606;2023-05-18T17:53:28;9.38;;;4.07;;
20984;SDS011;10651;47.552;7.606;2023-05-18T17:55:55;7.07;;;3.83;;
20984;SDS011;10651;47.552;7.606;2023-05-18T17:58:20;8.20;;;4.18;;
20984;SDS011;10651;47.552;7.606;2023-05-18T18:00:51;11.13;;;3.72;;
20984;SDS011;10651;47.552;7.606;2023-05-18T18:03:17;7.63;;;3.70;;
20984;SDS011;10651;47.552;7.606;2023-05-18T18:05:46;8.75;;;4.53;;
20984;SDS011;10651;47.552;7.606;2023-05-18T18:11:47;7.80;;;3.88;;
20984;SDS011;10651;47.552;7.606;2023-05-18T18:14:53;5.05;;;3.60;;
20984;SDS011;10651;47.552;7.606;2023-05-18T18:17:22;9.70;;;4.47;;
20984;SDS011;10651;47.552;7.606;2023-05-18T18:23:38;6.97;;;4.13;;
20984;SDS011;10651;47.552;7.606;2023-05-18T18:26:56;7.43;;;4.22;;
20984;SDS011;10651;47.552;7.606;2023-05-18T18:29:31;8.10;;;4.57;;
20984;SDS011;10651;47.552;7.606;2023-05-18T18:32:00;37.85;;;20.92;;
20984;SDS011;10651;47.552;7.606;2023-05-18T18:34:36;13.80;;;6.85;;
20984;SDS011;10651;47.552;7.606;2023-05-18T18:37:12;7.57;;;4.88;;
20984;SDS011;10651;47.552;7.606;2023-05-18T18:39:59;10.35;;;4.93;;
20984;SDS011;10651;47.552;7.606;2023-05-18T18:42:58;11.82;;;4.70;;
20984;SDS011;10651;47.552;7.606;2023-05-18T18:45:36;9.27;;;4.85;;
20984;SDS011;10651;47.552;7.606;2023-05-18T18:48:13;8.90;;;4.55;;
20984;SDS011;10651;47.552;7.606;2023-05-18T18:50:53;9.25;;;4.32;;
20984;SDS011;10651;47.552;7.606;2023-05-18T18:53:20;11.00;;;4.68;;
20984;SDS011;10651;47.552;7.606;2023-05-18T18:56:06;9.82;;;4.70;;
20984;SDS011;10651;47.552;7.606;2023-05-18T18:58:32;8.63;;;4.25;;
20984;SDS011;10651;47.552;7.606;2023-05-18T19:01:01;8.57;;;4.15;;
20984;SDS011;10651;47.552;7.606;2023-05-18T19:03:27;10.05;;;4.78;;
20984;SDS011;10651;47.552;7.606;2023-05-18T19:05:53;11.98;;;4.57;;
20984;SDS011;10651;47.552;7.606;2023-05-18T19:08:19;8.75;;;4.70;;
20984;SDS011;10651;47.552;7.606;2023-05-18T19:10:45;10.68;;;4.40;;
20984;SDS011;10651;47.552;7.606;2023-05-18T19:13:11;11.18;;;4.30;;
20984;SDS011;10651;47.552;7.606;2023-05-18T19:15:37;6.75;;;3.92;;
20984;SDS011;10651;47.552;7.606;2023-05-18T19:18:02;10.30;;;4.38;;
20984;SDS011;10651;47.552;7.606;2023-05-18T19:20:32;10.70;;;4.60;;
20984;SDS011;10651;47.552;7.606;2023-05-18T19:22:58;6.68;;;4.15;;
20984;SDS011;10651;47.552;7.606;2023-05-18T19:25:42;7.82;;;3.85;;
20984;SDS011;10651;47.552;7.606;2023-05-18T19:28:37;9.65;;;4.32;;
20984;SDS011;10651;47.552;7.606;2023-05-18T19:31:12;8.02;;;4.18;;
20984;SDS011;10651;47.552;7.606;2023-05-18T19:34:09;13.20;;;4.25;;
20984;SDS011;10651;47.552;7.606;2023-05-18T19:42:26;9.50;;;3.83;;
20984;SDS011;10651;47.552;7.606;2023-05-18T19:48:28;8.30;;;4.32;;
20984;SDS011;10651;47.552;7.606;2023-05-18T19:51:03;10.23;;;4.35;;
20984;SDS011;10651;47.552;7.606;2023-05-18T19:53:37;10.02;;;4.43;;
20984;SDS011;10651;47.552;7.606;2023-05-18T19:59:55;7.88;;;4.10;;
20984;SDS011;10651;47.552;7.606;2023-05-18T20:15:56;9.30;;;4.10;;
